sensor_id;sensor_type;location;lat;lon;timestamp;pressure;altitude;pressure_sealevel;temperature;humidity
27429;BME280;14881;48.092;11.574;2024-02-26T00:02:21;93777.78;;;-0.66;100.00
27429;BME280;14881;48.092;11.574;2024-02-26T00:04:49;93765.28;;;-0.60;100.00
27429;BME280;14881;48.092;11.574;2024-02-26T00:07:17;93765.31;;;-0.55;100.00
27429;BME280;14881;48.092;11.574;2024-02-26T00:09:46;93762.38;;;-0.44;100.00
27429;BME280;14881;48.092;11.574;2024-02-26T00:12:14;93761.88;;;-0.41;100.00
27429;BME280;14881;48.092;11.574;2024-02-26T00:14:42;93768.28;;;-0.37;100.00
27429;BME280;14881;48.092;11.574;2024-02-26T00:17:12;93768.81;;;-0.40;100.00
27429;BME280;14881;48.092;11.574;2024-02-26T00:19:41;93765.56;;;-0.47;100.00
27429;BME280;14881;48.092;11.574;2024-02-26T00:22:08;93765.31;;;-0.45;100.00
27429;BME280;14881;48.092;11.574;2024-02-26T00:24:36;93763.97;;;-0.48;100.00
27429;BME280;14881;48.092;11.574;2024-02-26T00:27:05;93766.09;;;-0.50;100.00
27429;BME280;14881;48.092;11.574;2024-02-26T00:29:33;93770.38;;;-0.54;100.00
27429;BME280;14881;48.092;11.574;2024-02-26T00:32:01;93764.75;;;-0.57;100.00
27429;BME280;14881;48.092;11.574;2024-02-26T00:34:29;93760.75;;;-0.60;100.00
27429;BME280;14881;48.092;11.574;2024-02-26T00:36:57;93757.28;;;-0.65;100.00
27429;BME280;14881;48.092;11.574;2024-02-26T00:39:24;93756.47;;;-0.66;100.00
27429;BME280;14881;48.092;11.574;2024-02-26T00:41:52;93749.00;;;-0.74;100.00
27429;BME280;14881;48.092;11.574;2024-02-26T00:44:21;93755.66;;;-0.77;100.00
27429;BME280;14881;48.092;11.574;2024-02-26T00:46:49;93756.97;;;-0.79;100.00
27429;BME280;14881;48.092;11.574;2024-02-26T00:49:17;93753.50;;;-0.80;100.00
27429;BME280;14881;48.092;11.574;2024-02-26T00:51:46;93748.47;;;-0.76;100.00
27429;BME280;14881;48.092;11.574;2024-02-26T00:54:14;93750.56;;;-0.83;100.00
27429;BME280;14881;48.092;11.574;2024-02-26T00:56:42;93744.69;;;-0.85;100.00
27429;BME280;14881;48.092;11.574;2024-02-26T00:59:10;93736.16;;;-0.82;100.00
27429;BME280;14881;48.092;11.574;2024-02-26T01:01:39;93736.47;;;-0.79;100.00
27429;BME280;14881;48.092;11.574;2024-02-26T01:04:07;93740.16;;;-0.85;100.00
27429;BME280;14881;48.092;11.574;2024-02-26T01:06:35;93742.03;;;-0.90;100.00
27429;BME280;14881;48.092;11.574;2024-02-26T01:09:03;93751.34;;;-0.93;100.00
27429;BME280;14881;48.092;11.574;2024-02-26T01:11:31;93746.25;;;-1.04;100.00
27429;BME280;14881;48.092;11.574;2024-02-26T01:13:59;93749.97;;;-1.06;100.00
27429;BME280;14881;48.092;11.574;2024-02-26T01:16:27;93752.66;;;-1.06;100.00
27429;BME280;14881;48.092;11.574;2024-02-26T01:18:57;93735.84;;;-1.01;100.00
27429;BME280;14881;48.092;11.574;2024-02-26T01:21:24;93746.78;;;-1.02;100.00
27429;BME280;14881;48.092;11.574;2024-02-26T01:23:53;93735.63;;;-0.94;100.00
27429;BME280;14881;48.092;11.574;2024-02-26T01:26:21;93741.47;;;-0.97;100.00
27429;BME280;14881;48.092;11.574;2024-02-26T01:28:49;93732.38;;;-1.07;100.00
27429;BME280;14881;48.092;11.574;2024-02-26T01:31:17;93736.09;;;-1.13;100.00
27429;BME280;14881;48.092;11.574;2024-02-26T01:33:44;93728.91;;;-1.12;100.00
27429;BME280;14881;48.092;11.574;2024-02-26T01:36:14;93734.50;;;-1.09;100.00
27429;BME280;14881;48.092;11.574;2024-02-26T01:38:42;93736.41;;;-1.04;100.00
27429;BME280;14881;48.092;11.574;2024-02-26T01:41:10;93740.34;;;-1.12;100.00
27429;BME280;14881;48.092;11.574;2024-02-26T01:43:37;93740.06;;;-1.15;100.00
27429;BME280;14881;48.092;11.574;2024-02-26T01:46:06;93744.84;;;-1.22;100.00
27429;BME280;14881;48.092;11.574;2024-02-26T01:48:35;93738.47;;;-1.21;100.00
27429;BME280;14881;48.092;11.574;2024-02-26T01:51:04;93738.97;;;-1.24;100.00
27429;BME280;14881;48.092;11.574;2024-02-26T01:53:33;93737.59;;;-1.32;100.00
27429;BME280;14881;48.092;11.574;2024-02-26T01:56:02;93733.09;;;-1.31;100.00
27429;BME280;14881;48.092;11.574;2024-02-26T01:58:30;93735.19;;;-1.33;100.00
27429;BME280;14881;48.092;11.574;2024-02-26T02:00:59;93734.41;;;-1.34;100.00
27429;BME280;14881;48.092;11.574;2024-02-26T02:03:27;93721.63;;;-1.32;100.00
27429;BME280;14881;48.092;11.574;2024-02-26T02:05:55;93728.59;;;-1.26;100.00
27429;BME280;14881;48.092;11.574;2024-02-26T02:08:23;93727.50;;;-1.30;100.00
27429;BME280;14881;48.092;11.574;2024-02-26T02:10:52;93726.41;;;-1.34;100.00
27429;BME280;14881;48.092;11.574;2024-02-26T02:13:20;93724.56;;;-1.33;100.00
27429;BME280;14881;48.092;11.574;2024-02-26T02:15:48;93724.56;;;-1.33;100.00
27429;BME280;14881;48.092;11.574;2024-02-26T02:18:16;93719.53;;;-1.25;100.00
27429;BME280;14881;48.092;11.574;2024-02-26T02:20:45;93705.72;;;-1.22;100.00
27429;BME280;14881;48.092;11.574;2024-02-26T02:23:13;93711.28;;;-1.18;100.00
27429;BME280;14881;48.092;11.574;2024-02-26T02:25:40;93713.72;;;-1.12;100.00
27429;BME280;14881;48.092;11.574;2024-02-26T02:28:09;93703.84;;;-1.21;100.00
27429;BME280;14881;48.092;11.574;2024-02-26T02:30:37;93702.75;;;-1.25;100.00
27429;BME280;14881;48.092;11.574;2024-02-26T02:33:05;93705.16;;;-1.24;100.00
27429;BME280;14881;48.092;11.574;2024-02-26T02:35:33;93709.94;;;-1.21;100.00
27429;BME280;14881;48.092;11.574;2024-02-26T02:38:03;93702.50;;;-1.19;100.00
27429;BME280;14881;48.092;11.574;2024-02-26T02:40:31;93708.13;;;-1.10;100.00
27429;BME280;14881;48.092;11.574;2024-02-26T02:42:59;93694.25;;;-1.17;100.00
27429;BME280;14881;48.092;11.574;2024-02-26T02:45:28;93704.63;;;-1.21;100.00
27429;BME280;14881;48.092;11.574;2024-02-26T02:47:56;93715.00;;;-1.24;100.00
27429;BME280;14881;48.092;11.574;2024-02-26T02:50:24;93714.72;;;-1.28;100.00
27429;BME280;14881;48.092;11.574;2024-02-26T02:52:51;93712.06;;;-1.28;100.00
27429;BME280;14881;48.092;11.574;2024-02-26T02:55:21;93710.97;;;-1.32;100.00
27429;BME280;14881;48.092;11.574;2024-02-26T02:57:48;93717.38;;;-1.33;100.00
27429;BME280;14881;48.092;11.574;2024-02-26T03:00:17;93721.88;;;-1.33;100.00
27429;BME280;14881;48.092;11.574;2024-02-26T03:02:45;93725.59;;;-1.34;100.00
27429;BME280;14881;48.092;11.574;2024-02-26T03:05:13;93714.41;;;-1.36;100.00
27429;BME280;14881;48.092;11.574;2024-02-26T03:07:42;93708.03;;;-1.35;100.00
27429;BME280;14881;48.092;11.574;2024-02-26T03:10:09;93698.19;;;-1.35;100.00
27429;BME280;14881;48.092;11.574;2024-02-26T03:12:39;93708.84;;;-1.35;100.00
27429;BME280;14881;48.092;11.574;2024-02-26T03:15:07;93704.56;;;-1.36;100.00
27429;BME280;14881;48.092;11.574;2024-02-26T03:17:35;93693.41;;;-1.33;100.00
27429;BME280;14881;48.092;11.574;2024-02-26T03:20:03;93692.38;;;-1.22;100.00
27429;BME280;14881;48.092;11.574;2024-02-26T03:22:31;93694.75;;;-1.20;100.00
27429;BME280;14881;48.092;11.574;2024-02-26T03:24:59;93692.69;;;-1.08;100.00
27429;BME280;14881;48.092;11.574;2024-02-26T03:27:29;93698.00;;;-1.08;100.00
27429;BME280;14881;48.092;11.574;2024-02-26T03:29:59;93693.75;;;-1.09;100.00
27429;BME280;14881;48.092;11.574;2024-02-26T03:32:27;93695.34;;;-1.08;100.00
27429;BME280;14881;48.092;11.574;2024-02-26T03:34:55;93690.56;;;-1.06;100.00
27429;BME280;14881;48.092;11.574;2024-02-26T03:37:23;93705.22;;;-1.09;100.00
27429;BME280;14881;48.092;11.574;2024-02-26T03:39:51;93711.84;;;-1.11;100.00
27429;BME280;14881;48.092;11.574;2024-02-26T03:42:19;93699.31;;;-1.16;100.00
27429;BME280;14881;48.092;11.574;2024-02-26T03:44:46;93705.97;;;-1.18;100.00
27429;BME280;14881;48.092;11.574;2024-02-26T03:47:16;93706.22;;;-1.20;100.00
27429;BME280;14881;48.092;11.574;2024-02-26T03:49:44;93696.63;;;-1.21;100.00
27429;BME280;14881;48.092;11.574;2024-02-26T03:52:11;93693.72;;;-1.24;100.00
27429;BME280;14881;48.092;11.574;2024-02-26T03:54:39;93697.19;;;-1.24;100.00
27429;BME280;14881;48.092;11.574;2024-02-26T03:57:07;93701.44;;;-1.23;100.00
27429;BME280;14881;48.092;11.574;2024-02-26T03:59:35;93692.38;;;-1.22;100.00
27429;BME280;14881;48.092;11.574;2024-02-26T04:02:03;93695.56;;;-1.20;100.00
27429;BME280;14881;48.092;11.574;2024-02-26T04:04:35;93693.19;;;-1.16;100.00
27429;BME280;14881;48.092;11.574;2024-02-26T04:07:03;93692.66;;;-1.13;100.00
27429;BME280;14881;48.092;11.574;2024-02-26T04:09:31;93692.94;;;-1.15;100.00
27429;BME280;14881;48.092;11.574;2024-02-26T04:11:59;93697.22;;;-1.03;100.00
27429;BME280;14881;48.092;11.574;2024-02-26T04:14:27;93687.59;;;-1.15;100.00
27429;BME280;14881;48.092;11.574;2024-02-26T04:16:54;93689.44;;;-1.20;100.00
27429;BME280;14881;48.092;11.574;2024-02-26T04:19:22;93685.72;;;-1.19;100.00
27429;BME280;14881;48.092;11.574;2024-02-26T04:21:52;93700.38;;;-1.22;100.00
27429;BME280;14881;48.092;11.574;2024-02-26T04:24:19;93700.06;;;-1.30;100.00
27429;BME280;14881;48.092;11.574;2024-02-26T04:26:47;93699.00;;;-1.29;100.00
27429;BME280;14881;48.092;11.574;2024-02-26T04:29:16;93704.81;;;-1.37;100.00
27429;BME280;14881;48.092;11.574;2024-02-26T04:31:44;93701.91;;;-1.36;100.00
27429;BME280;14881;48.092;11.574;2024-02-26T04:34:12;93696.28;;;-1.45;100.00
27429;BME280;14881;48.092;11.574;2024-02-26T04:36:40;93701.91;;;-1.41;100.00
27429;BME280;14881;48.092;11.574;2024-02-26T04:39:10;93706.63;;;-1.53;100.00
27429;BME280;14881;48.092;11.574;2024-02-26T04:41:38;93713.81;;;-1.54;100.00
27429;BME280;14881;48.092;11.574;2024-02-26T04:44:06;93707.66;;;-1.59;100.00
27429;BME280;14881;48.092;11.574;2024-02-26T04:46:33;93706.59;;;-1.63;100.00
27429;BME280;14881;48.092;11.574;2024-02-26T04:49:01;93704.75;;;-1.58;100.00
27429;BME280;14881;48.092;11.574;2024-02-26T04:51:29;93698.34;;;-1.62;100.00
27429;BME280;14881;48.092;11.574;2024-02-26T04:53:57;93702.88;;;-1.62;100.00
27429;BME280;14881;48.092;11.574;2024-02-26T04:56:27;93706.88;;;-1.60;100.00
27429;BME280;14881;48.092;11.574;2024-02-26T04:58:54;93702.91;;;-1.57;100.00
27429;BME280;14881;48.092;11.574;2024-02-26T05:01:22;93695.44;;;-1.55;100.00
27429;BME280;14881;48.092;11.574;2024-02-26T05:03:50;93703.44;;;-1.50;100.00
27429;BME280;14881;48.092;11.574;2024-02-26T05:06:18;93704.00;;;-1.48;100.00
27429;BME280;14881;48.092;11.574;2024-02-26T05:08:46;93705.59;;;-1.47;100.00
27429;BME280;14881;48.092;11.574;2024-02-26T05:11:14;93702.69;;;-1.41;100.00
27429;BME280;14881;48.092;11.574;2024-02-26T05:13:44;93695.78;;;-1.36;100.00
27429;BME280;14881;48.092;11.574;2024-02-26T05:16:13;93706.72;;;-1.33;100.00
27429;BME280;14881;48.092;11.574;2024-02-26T05:18:40;93694.75;;;-1.30;100.00
27429;BME280;14881;48.092;11.574;2024-02-26T05:21:08;93708.34;;;-1.27;100.00
27429;BME280;14881;48.092;11.574;2024-02-26T05:23:36;93709.69;;;-1.24;100.00
27429;BME280;14881;48.092;11.574;2024-02-26T05:26:04;93707.00;;;-1.29;100.00
27429;BME280;14881;48.092;11.574;2024-02-26T05:28:32;93718.41;;;-1.34;100.00
27429;BME280;14881;48.092;11.574;2024-02-26T05:31:01;93714.16;;;-1.35;100.00
27429;BME280;14881;48.092;11.574;2024-02-26T05:33:29;93714.97;;;-1.34;100.00
27429;BME280;14881;48.092;11.574;2024-02-26T05:35:57;93716.56;;;-1.33;100.00
27429;BME280;14881;48.092;11.574;2024-02-26T05:38:30;93709.63;;;-1.34;100.00
27429;BME280;14881;48.092;11.574;2024-02-26T05:40:58;93718.41;;;-1.34;100.00
27429;BME280;14881;48.092;11.574;2024-02-26T05:43:26;93721.63;;;-1.32;100.00
27429;BME280;14881;48.092;11.574;2024-02-26T05:45:54;93720.84;;;-1.27;100.00
27429;BME280;14881;48.092;11.574;2024-02-26T05:48:23;93718.47;;;-1.24;100.00
27429;BME280;14881;48.092;11.574;2024-02-26T05:50:51;93720.88;;;-1.22;100.00
27429;BME280;14881;48.092;11.574;2024-02-26T05:53:19;93726.47;;;-1.19;100.00
27429;BME280;14881;48.092;11.574;2024-02-26T05:55:47;93716.63;;;-1.18;100.00
27429;BME280;14881;48.092;11.574;2024-02-26T05:58:15;93716.34;;;-1.17;100.00
27429;BME280;14881;48.092;11.574;2024-02-26T06:00:42;93714.53;;;-1.11;100.00
27429;BME280;14881;48.092;11.574;2024-02-26T06:03:11;93720.13;;;-1.08;100.00
27429;BME280;14881;48.092;11.574;2024-02-26T06:05:40;93725.75;;;-1.04;100.00
27429;BME280;14881;48.092;11.574;2024-02-26T06:08:08;93726.28;;;-0.97;100.00
27429;BME280;14881;48.092;11.574;2024-02-26T06:10:35;93728.97;;;-0.92;100.00
27429;BME280;14881;48.092;11.574;2024-02-26T06:13:03;93737.50;;;-0.90;100.00
27429;BME280;14881;48.092;11.574;2024-02-26T06:15:31;93731.13;;;-0.89;100.00
27429;BME280;14881;48.092;11.574;2024-02-26T06:17:59;93735.66;;;-0.79;100.00
27429;BME280;14881;48.092;11.574;2024-02-26T06:20:27;93740.19;;;-0.75;100.00
27429;BME280;14881;48.092;11.574;2024-02-26T06:22:56;93742.34;;;-0.66;100.00
27429;BME280;14881;48.092;11.574;2024-02-26T06:25:24;93747.44;;;-0.60;100.00
27429;BME280;14881;48.092;11.574;2024-02-26T06:27:52;93754.63;;;-0.50;100.00
27429;BME280;14881;48.092;11.574;2024-02-26T06:30:21;93760.78;;;-0.45;100.00
27429;BME280;14881;48.092;11.574;2024-02-26T06:32:49;93766.41;;;-0.41;100.00
27429;BME280;14881;48.092;11.574;2024-02-26T06:35:17;93764.25;;;-0.39;100.00
27429;BME280;14881;48.092;11.574;2024-02-26T06:37:45;93763.75;;;-0.26;100.00
27429;BME280;14881;48.092;11.574;2024-02-26T06:40:14;93767.75;;;-0.23;100.00
27429;BME280;14881;48.092;11.574;2024-02-26T06:42:43;93777.34;;;-0.12;100.00
27429;BME280;14881;48.092;11.574;2024-02-26T06:45:15;93764.56;;;-0.05;100.00
27429;BME280;14881;48.092;11.574;2024-02-26T06:47:43;93779.75;;;0.05;100.00
27429;BME280;14881;48.092;11.574;2024-02-26T06:50:11;93788.03;;;0.13;100.00
27429;BME280;14881;48.092;11.574;2024-02-26T06:52:39;93787.22;;;0.23;100.00
27429;BME280;14881;48.092;11.574;2024-02-26T06:55:08;93791.78;;;0.32;100.00
27429;BME280;14881;48.092;11.574;2024-02-26T06:57:37;93790.69;;;0.39;100.00
27429;BME280;14881;48.092;11.574;2024-02-26T07:00:05;93790.16;;;0.47;100.00
27429;BME280;14881;48.092;11.574;2024-02-26T07:02:33;93791.47;;;0.54;100.00
27429;BME280;14881;48.092;11.574;2024-02-26T07:05:05;93785.84;;;0.66;100.00
27429;BME280;14881;48.092;11.574;2024-02-26T07:07:33;93791.97;;;0.77;100.00
27429;BME280;14881;48.092;11.574;2024-02-26T07:10:01;93790.03;;;0.87;100.00
27429;BME280;14881;48.092;11.574;2024-02-26T07:12:30;93794.31;;;0.98;100.00
27429;BME280;14881;48.092;11.574;2024-02-26T07:14:59;93797.47;;;1.05;100.00
27429;BME280;14881;48.092;11.574;2024-02-26T07:17:27;93800.13;;;1.16;100.00
27429;BME280;14881;48.092;11.574;2024-02-26T07:19:55;93804.88;;;1.29;100.00
27429;BME280;14881;48.092;11.574;2024-02-26T07:22:23;93799.47;;;1.39;100.00
27429;BME280;14881;48.092;11.574;2024-02-26T07:24:51;93799.44;;;1.54;100.00
27429;BME280;14881;48.092;11.574;2024-02-26T07:27:19;93790.25;;;1.65;100.00
27429;BME280;14881;48.092;11.574;2024-02-26T07:29:48;93792.59;;;1.77;100.00
27429;BME280;14881;48.092;11.574;2024-02-26T07:32:17;93793.56;;;1.91;100.00
27429;BME280;14881;48.092;11.574;2024-02-26T07:34:45;93791.09;;;2.05;100.00
27429;BME280;14881;48.092;11.574;2024-02-26T07:37:13;93791.25;;;2.19;100.00
27429;BME280;14881;48.092;11.574;2024-02-26T07:39:41;93789.50;;;2.33;100.00
27429;BME280;14881;48.092;11.574;2024-02-26T07:42:08;93797.75;;;2.41;100.00
27429;BME280;14881;48.092;11.574;2024-02-26T07:44:36;93791.72;;;2.60;100.00
27429;BME280;14881;48.092;11.574;2024-02-26T07:47:04;93801.75;;;2.73;100.00
27429;BME280;14881;48.092;11.574;2024-02-26T07:49:33;93807.81;;;2.84;100.00
27429;BME280;14881;48.092;11.574;2024-02-26T07:52:05;93802.84;;;2.96;100.00
27429;BME280;14881;48.092;11.574;2024-02-26T07:54:33;93815.91;;;3.07;100.00
27429;BME280;14881;48.092;11.574;2024-02-26T07:57:01;93813.72;;;3.09;100.00
27429;BME280;14881;48.092;11.574;2024-02-26T07:59:32;93814.97;;;3.17;100.00
27429;BME280;14881;48.092;11.574;2024-02-26T08:01:59;93812.81;;;3.19;100.00
27429;BME280;14881;48.092;11.574;2024-02-26T08:04:29;93801.31;;;3.13;100.00
27429;BME280;14881;48.092;11.574;2024-02-26T08:06:58;93795.34;;;3.22;100.00
27429;BME280;14881;48.092;11.574;2024-02-26T08:09:26;93809.72;;;3.31;100.00
27429;BME280;14881;48.092;11.574;2024-02-26T08:11:54;93808.00;;;3.40;100.00
27429;BME280;14881;48.092;11.574;2024-02-26T08:14:22;93811.59;;;3.54;100.00
27429;BME280;14881;48.092;11.574;2024-02-26T08:16:50;93817.28;;;3.71;100.00
27429;BME280;14881;48.092;11.574;2024-02-26T08:19:18;93802.50;;;3.93;100.00
27429;BME280;14881;48.092;11.574;2024-02-26T08:21:45;93796.88;;;4.27;100.00
27429;BME280;14881;48.092;11.574;2024-02-26T08:24:15;93792.03;;;4.61;100.00
27429;BME280;14881;48.092;11.574;2024-02-26T08:26:42;93789.97;;;4.85;100.00
27429;BME280;14881;48.092;11.574;2024-02-26T08:29:11;93790.03;;;5.13;100.00
27429;BME280;14881;48.092;11.574;2024-02-26T08:31:39;93789.75;;;5.28;100.00
27429;BME280;14881;48.092;11.574;2024-02-26T08:34:07;93784.25;;;5.47;100.00
27429;BME280;14881;48.092;11.574;2024-02-26T08:36:35;93790.34;;;5.52;100.00
27429;BME280;14881;48.092;11.574;2024-02-26T08:39:03;93799.59;;;5.74;100.00
27429;BME280;14881;48.092;11.574;2024-02-26T08:41:32;93805.56;;;5.84;100.00
27429;BME280;14881;48.092;11.574;2024-02-26T08:44:00;93798.88;;;5.82;100.00
27429;BME280;14881;48.092;11.574;2024-02-26T08:46:28;93797.44;;;6.12;100.00
27429;BME280;14881;48.092;11.574;2024-02-26T08:48:56;93797.00;;;6.32;100.00
27429;BME280;14881;48.092;11.574;2024-02-26T08:51:24;93793.94;;;6.47;100.00
27429;BME280;14881;48.092;11.574;2024-02-26T08:53:52;93789.56;;;6.60;100.00
27429;BME280;14881;48.092;11.574;2024-02-26T08:56:20;93791.44;;;6.73;100.00
27429;BME280;14881;48.092;11.574;2024-02-26T08:58:49;93786.69;;;6.79;100.00
27429;BME280;14881;48.092;11.574;2024-02-26T09:01:20;93789.75;;;6.86;100.00
27429;BME280;14881;48.092;11.574;2024-02-26T09:03:49;93794.59;;;6.97;100.00
27429;BME280;14881;48.092;11.574;2024-02-26T09:06:17;93794.63;;;7.06;100.00
27429;BME280;14881;48.092;11.574;2024-02-26T09:08:45;93790.38;;;7.14;100.00
27429;BME280;14881;48.092;11.574;2024-02-26T09:11:13;93791.41;;;7.26;100.00
27429;BME280;14881;48.092;11.574;2024-02-26T09:13:41;93788.13;;;7.38;100.00
27429;BME280;14881;48.092;11.574;2024-02-26T09:16:11;93790.25;;;7.58;100.00
27429;BME280;14881;48.092;11.574;2024-02-26T09:18:39;93783.13;;;7.80;100.00
27429;BME280;14881;48.092;11.574;2024-02-26T09:21:07;93781.75;;;7.91;100.00
27429;BME280;14881;48.092;11.574;2024-02-26T09:23:35;93785.59;;;8.07;100.00
27429;BME280;14881;48.092;11.574;2024-02-26T09:26:05;93784.50;;;8.08;100.00
27429;BME280;14881;48.092;11.574;2024-02-26T09:28:32;93780.50;;;8.31;100.00
27429;BME280;14881;48.092;11.574;2024-02-26T09:31:04;93783.25;;;8.49;100.00
27429;BME280;14881;48.092;11.574;2024-02-26T09:33:34;93778.63;;;8.66;100.00
27429;BME280;14881;48.092;11.574;2024-02-26T09:36:03;93773.84;;;8.81;100.00
27429;BME280;14881;48.092;11.574;2024-02-26T09:38:32;93780.00;;;9.07;100.00
27429;BME280;14881;48.092;11.574;2024-02-26T09:41:17;93780.09;;;9.28;100.00
27429;BME280;14881;48.092;11.574;2024-02-26T09:43:45;93780.19;;;9.49;100.00
27429;BME280;14881;48.092;11.574;2024-02-26T09:46:14;93772.31;;;9.64;100.00
27429;BME280;14881;48.092;11.574;2024-02-26T09:48:47;93771.56;;;9.85;100.00
27429;BME280;14881;48.092;11.574;2024-02-26T09:51:16;93777.88;;;9.97;100.00
27429;BME280;14881;48.092;11.574;2024-02-26T09:53:44;93775.00;;;10.23;100.00
27429;BME280;14881;48.092;11.574;2024-02-26T09:56:14;93776.59;;;10.24;100.00
27429;BME280;14881;48.092;11.574;2024-02-26T09:58:43;93776.19;;;10.13;100.00
27429;BME280;14881;48.092;11.574;2024-02-26T10:01:15;93775.28;;;10.30;100.00
27429;BME280;14881;48.092;11.574;2024-02-26T10:03:51;93764.16;;;10.44;100.00
27429;BME280;14881;48.092;11.574;2024-02-26T10:06:19;93768.41;;;10.54;100.00
27429;BME280;14881;48.092;11.574;2024-02-26T10:08:48;93765.63;;;10.62;100.00
27429;BME280;14881;48.092;11.574;2024-02-26T10:11:16;93766.84;;;10.53;100.00
27429;BME280;14881;48.092;11.574;2024-02-26T10:13:45;93767.66;;;10.65;100.00
27429;BME280;14881;48.092;11.574;2024-02-26T10:16:13;93770.25;;;10.62;100.00
27429;BME280;14881;48.092;11.574;2024-02-26T10:18:46;93757.63;;;10.45;100.00
27429;BME280;14881;48.092;11.574;2024-02-26T10:21:25;93757.63;;;10.45;100.00
27429;BME280;14881;48.092;11.574;2024-02-26T10:23:53;93754.16;;;10.57;100.00
27429;BME280;14881;48.092;11.574;2024-02-26T10:26:21;93755.19;;;10.52;100.00
27429;BME280;14881;48.092;11.574;2024-02-26T10:28:49;93740.84;;;10.64;100.00
27429;BME280;14881;48.092;11.574;2024-02-26T10:31:21;93740.78;;;10.72;100.00
27429;BME280;14881;48.092;11.574;2024-02-26T10:33:55;93734.94;;;10.95;100.00
27429;BME280;14881;48.092;11.574;2024-02-26T10:36:26;93725.47;;;11.13;100.00
27429;BME280;14881;48.092;11.574;2024-02-26T10:39:11;93729.78;;;11.14;100.00
27429;BME280;14881;48.092;11.574;2024-02-26T10:41:40;93735.16;;;11.23;100.00
27429;BME280;14881;48.092;11.574;2024-02-26T10:44:09;93734.81;;;11.36;100.00
27429;BME280;14881;48.092;11.574;2024-02-26T10:46:43;93742.66;;;11.50;100.00
27429;BME280;14881;48.092;11.574;2024-02-26T10:49:15;93740.19;;;11.57;100.00
27429;BME280;14881;48.092;11.574;2024-02-26T10:51:49;93739.72;;;11.79;100.00
27429;BME280;14881;48.092;11.574;2024-02-26T10:54:20;93742.13;;;12.05;100.00
27429;BME280;14881;48.092;11.574;2024-02-26T10:56:49;93746.06;;;12.20;100.00
27429;BME280;14881;48.092;11.574;2024-02-26T10:59:18;93744.16;;;12.48;100.00
27429;BME280;14881;48.092;11.574;2024-02-26T11:01:47;93742.22;;;12.61;100.00
27429;BME280;14881;48.092;11.574;2024-02-26T11:04:18;93758.38;;;13.10;100.00
27429;BME280;14881;48.092;11.574;2024-02-26T11:06:47;93759.78;;;13.32;100.00
27429;BME280;14881;48.092;11.574;2024-02-26T11:09:15;93764.25;;;13.55;100.00
27429;BME280;14881;48.092;11.574;2024-02-26T11:11:44;93765.50;;;13.58;99.39
27429;BME280;14881;48.092;11.574;2024-02-26T11:14:12;93765.50;;;13.58;100.00
27429;BME280;14881;48.092;11.574;2024-02-26T11:16:41;93774.50;;;13.74;100.00
27429;BME280;14881;48.092;11.574;2024-02-26T11:19:10;93765.78;;;13.84;100.00
27429;BME280;14881;48.092;11.574;2024-02-26T11:21:42;93776.78;;;13.72;98.16
27429;BME280;14881;48.092;11.574;2024-02-26T11:24:13;93772.41;;;13.68;98.14
27429;BME280;14881;48.092;11.574;2024-02-26T11:26:43;93775.91;;;13.84;100.00
27429;BME280;14881;48.092;11.574;2024-02-26T11:29:19;93772.81;;;13.85;95.42
27429;BME280;14881;48.092;11.574;2024-02-26T11:31:48;93782.31;;;13.91;100.00
27429;BME280;14881;48.092;11.574;2024-02-26T11:34:16;93766.47;;;13.97;100.00
27429;BME280;14881;48.092;11.574;2024-02-26T11:36:46;93768.69;;;13.91;97.22
27429;BME280;14881;48.092;11.574;2024-02-26T11:39:14;93764.09;;;13.96;95.67
27429;BME280;14881;48.092;11.574;2024-02-26T11:41:43;93765.94;;;13.91;93.16
27429;BME280;14881;48.092;11.574;2024-02-26T11:44:11;93766.59;;;13.85;93.59
27429;BME280;14881;48.092;11.574;2024-02-26T11:46:40;93760.97;;;14.28;95.37
27429;BME280;14881;48.092;11.574;2024-02-26T11:49:30;93755.25;;;14.69;91.87
27429;BME280;14881;48.092;11.574;2024-02-26T11:51:59;93750.06;;;14.83;87.33
27429;BME280;14881;48.092;11.574;2024-02-26T11:54:43;93746.75;;;15.12;77.74
27429;BME280;14881;48.092;11.574;2024-02-26T11:57:24;93745.09;;;15.50;75.01
27429;BME280;14881;48.092;11.574;2024-02-26T11:59:53;93736.66;;;16.04;76.13
27429;BME280;14881;48.092;11.574;2024-02-26T12:02:49;93730.81;;;16.58;76.95
27429;BME280;14881;48.092;11.574;2024-02-26T12:05:21;93733.03;;;17.09;69.38
27429;BME280;14881;48.092;11.574;2024-02-26T12:07:55;93727.75;;;17.27;65.81
27429;BME280;14881;48.092;11.574;2024-02-26T12:10:25;93738.22;;;17.14;64.69
27429;BME280;14881;48.092;11.574;2024-02-26T12:12:54;93729.78;;;17.00;64.55
27429;BME280;14881;48.092;11.574;2024-02-26T12:15:24;93726.59;;;16.94;63.63
27429;BME280;14881;48.092;11.574;2024-02-26T12:17:53;93720.41;;;17.01;63.76
27429;BME280;14881;48.092;11.574;2024-02-26T12:20:21;93726.41;;;16.80;64.86
27429;BME280;14881;48.092;11.574;2024-02-26T12:22:50;93731.59;;;16.32;58.38
27429;BME280;14881;48.092;11.574;2024-02-26T12:25:22;93723.72;;;16.27;57.67
27429;BME280;14881;48.092;11.574;2024-02-26T12:27:51;93731.25;;;16.08;61.15
27429;BME280;14881;48.092;11.574;2024-02-26T12:30:19;93735.66;;;16.42;56.97
27429;BME280;14881;48.092;11.574;2024-02-26T12:32:47;93748.41;;;16.84;59.84
27429;BME280;14881;48.092;11.574;2024-02-26T12:35:16;93756.84;;;17.35;60.22
27429;BME280;14881;48.092;11.574;2024-02-26T12:37:44;93753.50;;;17.49;55.27
27429;BME280;14881;48.092;11.574;2024-02-26T12:40:12;93757.53;;;16.91;52.70
27429;BME280;14881;48.092;11.574;2024-02-26T12:42:41;93767.66;;;16.08;56.39
27429;BME280;14881;48.092;11.574;2024-02-26T12:45:11;93767.88;;;15.54;59.25
27429;BME280;14881;48.092;11.574;2024-02-26T12:47:40;93768.34;;;14.98;60.86
27429;BME280;14881;48.092;11.574;2024-02-26T12:50:08;93776.75;;;14.70;61.66
27429;BME280;14881;48.092;11.574;2024-02-26T12:52:39;93771.72;;;15.11;61.24